Latest Weather Observations for Brisbane Airport

IDQ60801

Issued at 6:02 pm EST Friday 28 April 2017 (issued every 30 minutes, with the page automatically refreshed every 10 minutes)

About weather observations | Map of weather stations | Latest weather observations for QLD | Other Formats
Station Details ID: 040842 Name: BRISBANE AERO Lat: -27.39 Lon: 153.13 Height: 4.51 m
Data from the previous 72 hours. | See also: Recent months at Brisbane Airport
Date/Time
EST
Temp
°C
App
Temp
°C
Dew
Point
°C
Rel
Hum
%
Delta-T
°C
Wind Press
QNH
hPa
Press
MSL
hPa
Rain since
9am
mm
Dir  Spd
km/h
Gust
km/h
Spd
kts
Gust
kts
28/05:30pm 20.8 17.5 11.6 55 5.1 SSW 20 28 11 15 1015.6 1015.6 0.0
28/05:00pm 21.4 18.0 11.3 52 5.6 SSW 20 28 11 15 1015.3 1015.3 0.0
28/04:30pm 21.7 17.9 11.0 50 5.9 SSW 22 30 12 16 1015.2 1015.2 0.0
28/04:00pm 22.6 19.1 10.8 47 6.5 SSW 20 28 11 15 1014.7 1014.7 0.0
28/03:30pm 22.4 19.1 10.8 47 6.4 SSW 19 30 10 16 1014.7 1014.7 0.0
28/03:00pm 23.0 19.4 10.4 45 6.9 SSW 20 30 11 16 1014.4 1014.4 0.0
28/02:30pm 23.0 19.6 10.5 45 6.9 SSW 19 28 10 15 1014.3 1014.3 0.0
28/02:00pm 23.2 21.6 10.3 44 7.1 SE 9 15 5 8 1014.2 1014.2 0.0
28/01:30pm 23.3 20.9 9.9 42 7.3 S 13 19 7 10 1014.3 1014.3 0.0
28/01:00pm 23.9 21.0 9.6 40 7.8 SSW 15 28 8 15 1014.4 1014.4 0.0
28/12:30pm 23.8 19.5 9.2 39 7.9 SSW 22 32 12 17 1014.7 1014.7 0.0
28/12:00pm 22.3 18.3 9.0 42 7.1 SSW 20 30 11 16 1015.0 1015.0 0.0
28/11:30am 22.2 18.3 9.3 43 6.9 SSW 20 30 11 16 1015.6 1015.6 0.0
28/11:00am 21.2 16.7 8.4 43 6.7 SSW 22 35 12 19 1016.0 1016.0 0.0
28/10:30am 20.4 15.3 7.5 43 6.6 SW 24 32 13 17 1016.4 1016.4 0.0
28/10:00am 19.7 14.5 7.3 44 6.3 SSW 24 32 13 17 1016.7 1016.7 0.0
28/09:30am 18.8 13.6 7.1 46 5.9 SW 24 32 13 17 1017.0 1017.0 0.0
28/09:00am 17.3 11.9 6.5 49 5.3 SW 24 30 13 16 1016.9 1016.9 0.0
28/08:30am 17.4 11.2 6.2 47 5.5 SW 28 35 15 19 1017.0 1017.0 0.0
28/08:00am 16.8 13.2 6.9 52 4.9 SW 15 19 8 10 1016.8 1016.8 0.0
28/07:30am 15.0 11.5 7.3 60 3.8 WSW 15 19 8 10 1016.6 1016.6 0.0
28/07:00am 13.7 11.2 8.1 69 2.8 WSW 11 15 6 8 1016.0 1016.0 0.0
28/06:30am 12.2 9.6 7.9 75 2.1 WSW 11 15 6 8 1015.6 1015.6 0.0
28/06:00am 12.3 10.1 7.8 74 2.2 WSW 9 11 5 6 1015.2 1015.2 0.0
28/05:30am 12.3 9.4 8.0 75 2.1 SW 13 17 7 9 1014.7 1014.7 0.0
28/05:00am 11.2 8.5 7.2 76 1.9 SW 11 13 6 7 1014.3 1014.3 0.0
28/04:30am 13.4 11.3 6.8 64 3.2 SW 7 9 4 5 1014.0 1014.0 0.0
28/04:00am 13.2 11.2 7.0 66 3.0 S 7 7 4 4 1013.8 1013.8 0.0
28/03:30am 12.5 9.0 7.1 69 2.6 WSW 15 17 8 9 1013.7 1013.7 0.0
28/03:00am 13.3 9.9 7.6 68 2.8 WSW 15 19 8 10 1013.9 1013.9 0.0
28/02:30am 12.1 8.2 7.1 71 2.4 WSW 17 19 9 10 1014.1 1014.1 0.0
28/02:00am 13.6 9.3 6.8 63 3.3 WSW 19 22 10 12 1014.1 1014.1 0.0
28/01:30am 14.4 9.8 6.5 59 3.8 WSW 20 26 11 14 1014.7 1014.7 0.0
28/01:00am 14.8 10.5 6.8 58 3.9 WSW 19 24 10 13 1015.1 1015.1 0.0
28/12:30am 14.8 10.5 6.8 58 3.9 WSW 19 24 10 13 1015.2 1015.2 0.0
28/12:00am 15.0 10.5 6.3 56 4.2 SW 19 26 10 14 1015.3 1015.3 0.0
 
Date/Time
EST
Temp
°C
App
Temp
°C
Dew
Point
°C
Rel
Hum
%
Delta-T
°C
Wind Press
QNH
hPa
Press
MSL
hPa
Rain since
9am
mm
Dir  Spd
km/h
Gust
km/h
Spd
kts
Gust
kts
27/11:30pm 14.4 10.4 6.5 59 3.8 WSW 17 24 9 13 1015.4 1015.4 0.0
27/11:00pm 14.7 10.3 6.4 57 4.0 SW 19 26 10 14 1015.2 1015.2 0.0
27/10:30pm 14.9 10.5 6.4 57 4.1 WSW 19 26 10 14 1015.2 1015.2 0.0
27/10:00pm 15.1 11.1 6.7 57 4.1 SW 17 22 9 12 1015.2 1015.2 0.0
27/09:30pm 14.9 11.3 6.7 58 4.0 WSW 15 19 8 10 1015.0 1015.0 0.0
27/09:00pm 15.2 12.1 7.1 58 4.0 WSW 13 19 7 10 1015.2 1015.2 0.0
27/08:30pm 15.9 12.7 7.0 55 4.4 W 13 17 7 9 1015.2 1015.2 0.0
27/08:00pm 17.0 14.0 5.9 48 5.4 WSW 11 17 6 9 1015.0 1015.0 0.0
27/07:30pm 17.6 13.4 5.6 45 5.8 SW 17 22 9 12 1015.0 1015.0 0.0
27/07:00pm 18.7 16.1 5.9 43 6.3 S 9 13 5 7 1014.5 1014.5 0.0
27/06:30pm 17.1 14.1 7.6 53 4.8 WSW 13 17 7 9 1014.0 1014.0 0.0
27/06:00pm 17.8 14.7 7.2 50 5.3 W 13 15 7 8 1013.6 1013.6 0.0
27/05:30pm 18.2 14.3 7.0 48 5.6 WSW 17 20 9 11 1013.4 1013.4 0.0
27/05:00pm 19.8 15.4 5.0 37 7.2 SW 17 22 9 12 1013.0 1013.0 0.0
27/04:30pm 20.6 15.9 5.1 36 7.6 SW 19 28 10 15 1012.7 1012.7 0.0
27/04:00pm 21.3 16.2 3.9 32 8.4 WSW 20 28 11 15 1012.4 1012.4 0.0
27/03:30pm 21.1 16.4 2.9 30 8.6 SSW 17 26 9 14 1012.1 1012.1 0.0
27/03:00pm 21.5 16.9 3.9 31 8.5 SW 17 26 9 14 1012.0 1012.0 0.0
27/02:30pm 21.8 16.9 5.0 33 8.3 WSW 20 30 11 16 1012.0 1012.0 0.0
27/02:00pm 21.3 15.6 2.6 29 8.8 SW 22 35 12 19 1011.8 1011.8 0.0
27/01:30pm 21.4 15.4 3.4 30 8.6 SW 24 37 13 20 1011.9 1011.9 0.0
27/01:00pm 21.2 15.6 3.7 31 8.4 SW 22 32 12 17 1012.4 1012.4 0.0
27/12:30pm 20.7 14.4 3.8 33 8.1 SW 26 35 14 19 1012.5 1012.5 0.0
27/12:00pm 20.3 13.4 4.6 35 7.6 SW 30 41 16 22 1013.0 1013.0 0.0
27/11:30am 20.5 14.6 3.8 33 8.0 SW 24 33 13 18 1013.4 1013.4 0.0
27/11:00am 19.8 14.1 4.7 37 7.3 SW 24 32 13 17 1013.7 1013.7 0.0
27/10:30am 19.4 12.3 3.8 35 7.4 SW 30 37 16 20 1013.8 1013.8 0.0
27/10:00am 18.7 12.0 3.9 37 7.0 WSW 28 35 15 19 1013.8 1013.8 0.0
27/09:30am 17.8 12.7 4.3 40 6.4 SW 20 30 11 16 1014.3 1014.3 0.0
27/09:00am 17.5 13.1 4.7 42 6.1 SW 17 24 9 13 1014.2 1014.2 0.8
27/08:30am 16.6 12.8 5.6 48 5.3 WSW 15 22 8 12 1014.2 1014.2 0.8
27/08:00am 15.7 11.2 6.2 53 4.6 W 19 24 10 13 1013.8 1013.8 0.8
27/07:30am 14.9 9.8 5.9 55 4.3 W 22 32 12 17 1013.3 1013.3 0.8
27/07:00am 14.0 11.0 7.5 65 3.2 WNW 13 19 7 10 1013.1 1013.1 0.8
27/06:30am 12.7 10.4 7.3 69 2.6 NW 9 13 5 7 1012.9 1012.9 0.8
27/06:00am 13.7 10.8 6.6 62 3.4 W 11 19 6 10 1012.8 1012.8 0.8
27/05:30am 13.6 10.2 7.7 67 2.9 W 15 19 8 10 1012.4 1012.4 0.8
27/05:00am 14.1 10.8 8.1 67 3.0 W 15 19 8 10 1012.0 1012.0 0.8
27/04:30am 13.6 11.7 9.1 74 2.3 WNW 9 15 5 8 1012.2 1012.2 0.8
27/04:00am 14.8 12.9 8.9 68 3.0 W 9 15 5 8 1012.0 1012.0 0.8
27/03:30am 15.2 11.3 9.4 68 3.0 WSW 20 35 11 19 1011.9 1011.9 0.8
27/03:00am 15.0 11.4 10.0 72 2.6 WSW 19 22 10 12 1011.9 1011.9 0.8
27/02:30am 15.5 13.1 10.2 70 2.8 WSW 13 15 7 8 1012.0 1012.0 0.8
27/02:00am 17.1 14.1 10.5 65 3.5 WSW 17 24 9 13 1012.0 1012.0 0.8
27/01:30am 17.5 14.9 10.8 65 3.6 W 15 19 8 10 1011.9 1011.9 0.8
27/01:00am 17.8 15.8 11.6 67 3.4 W 13 19 7 10 1011.9 1011.9 0.8
27/12:30am 18.3 16.0 11.8 66 3.6 WSW 15 19 8 10 1011.8 1011.8 0.8
27/12:00am 19.0 16.0 12.0 64 3.9 WSW 19 24 10 13 1011.7 1011.7 0.8
 
Date/Time
EST
Temp
°C
App
Temp
°C
Dew
Point
°C
Rel
Hum
%
Delta-T
°C
Wind Press
QNH
hPa
Press
MSL
hPa
Rain since
9am
mm
Dir  Spd
km/h
Gust
km/h
Spd
kts
Gust
kts
26/11:30pm 19.3 16.6 12.9 66 3.6 WSW 19 26 10 14 1011.6 1011.6 0.8
26/11:00pm 20.2 17.6 13.2 64 4.0 W 19 26 10 14 1011.4 1011.4 0.8
26/10:30pm 20.6 18.0 13.7 64 4.0 W 20 30 11 16 1011.4 1011.4 0.8
26/10:00pm 20.9 18.1 14.4 66 3.8 W 22 28 12 15 1011.4 1011.4 0.8
26/09:30pm 21.0 17.6 15.8 72 3.1 W 28 35 15 19 1011.2 1011.2 0.8
26/09:00pm 21.6 18.9 16.7 73 3.0 W 26 35 14 19 1011.1 1011.1 0.8
26/08:30pm 21.9 21.0 17.7 77 2.6 W 19 32 10 17 1010.9 1010.9 0.8
26/08:00pm 21.5 21.8 18.8 84 1.7 W 15 20 8 11 1010.5 1010.5 0.8
26/07:30pm 21.7 22.6 19.2 86 1.6 W 13 15 7 8 1010.1 1010.1 0.8
26/07:00pm 21.9 23.3 19.5 86 1.5 W 11 13 6 7 1010.1 1010.1 0.8
26/06:30pm 21.8 23.9 20.2 91 1.0 SW 9 13 5 7 1009.7 1009.7 0.8
26/06:00pm 22.4 24.2 20.4 88 1.3 WNW 11 13 6 7 1009.2 1009.2 0.8
26/05:30pm 22.6 24.3 20.9 90 1.1 NNW 13 15 7 8 1008.9 1008.9 0.8
26/05:00pm 22.5 23.9 21.1 92 0.9 N 15 19 8 10 1008.7 1008.7 0.8
26/04:30pm 22.6 24.4 21.1 91 1.0 N 13 17 7 9 1008.6 1008.6 0.8
26/04:00pm 22.6 24.4 21.2 92 0.9 NNE 13 17 7 9 1008.8 1008.8 0.8
26/03:30pm 22.1 23.8 20.9 93 0.8 NNE 13 15 7 8 1008.7 1008.7 0.8
26/03:00pm 22.5 24.5 20.7 89 1.2 N 11 15 6 8 1009.4 1009.4 0.0
26/02:30pm 23.1 23.9 19.8 82 2.1 N 15 19 8 10 1009.4 1009.4 0.0
26/02:00pm 22.9 24.4 19.0 78 2.5 NE 9 11 5 6 1009.6 1009.6 0.0
26/01:30pm 23.0 23.7 18.9 78 2.6 NE 13 17 7 9 1009.5 1009.5 0.0
26/01:00pm 23.2 24.8 17.9 72 3.3 NNW 6 13 3 7 1010.3 1010.3 0.0
26/12:30pm 22.9 24.6 18.5 76 2.8 NW 7 13 4 7 1010.9 1010.9 0.0
26/12:00pm 22.6 24.0 17.8 74 3.0 NNW 7 11 4 6 1011.4 1011.4 0.0
26/11:30am 22.9 23.3 17.2 70 3.5 N 11 19 6 10 1011.8 1011.8 0.0
26/11:00am 23.1 24.0 17.6 71 3.4 N 9 13 5 7 1012.2 1012.2 0.0
26/10:30am 22.4 23.5 17.2 72 3.2 NNW 7 11 4 6 1013.2 1013.2 0.0
26/10:00am 22.4 22.7 17.0 71 3.3 NNW 11 17 6 9 1013.7 1013.7 0.0
26/09:30am 22.5 22.0 17.0 71 3.4 NNW 15 19 8 10 1013.6 1013.6 0.0
26/09:00am 22.2 22.5 17.0 72 3.2 NNW 11 15 6 8 1013.7 1013.7 0.0
26/08:30am 21.1 21.4 17.0 77 2.5 WNW 11 22 6 12 1013.8 1013.8 0.0
26/08:00am 20.8 21.1 17.0 79 2.3 NW 11 13 6 7 1014.0 1014.0 0.0
26/07:30am 19.5 20.1 16.9 85 1.6 NW 9 11 5 6 1013.8 1013.8 0.0
26/07:00am 18.9 20.8 16.7 87 1.3 NW 2 7 1 4 1013.7 1013.7 0.0
26/06:30am 17.0 17.1 15.6 91 0.8 W 9 13 5 7 1013.5 1013.5 0.0
26/06:00am 17.3 17.5 15.8 91 0.9 WSW 9 11 5 6 1013.7 1013.7 0.0
26/05:30am 16.4 16.7 15.0 91 0.8 WNW 7 9 4 5 1013.7 1013.7 0.0
26/05:00am 16.8 18.7 15.8 94 0.6 CALM 0 0 0 0 1013.4 1013.4 0.0
26/04:30am 16.9 18.9 16.1 95 0.5 CALM 0 0 0 0 1013.2 1013.2 0.0
26/04:00am 17.2 18.0 15.8 91 0.8 WNW 6 7 3 4 1013.2 1013.2 0.0
26/03:30am 17.2 17.9 16.0 93 0.7 NNW 7 9 4 5 1013.2 1013.2 0.0
26/03:00am 18.0 17.9 16.1 89 1.1 NW 11 11 6 6 1013.2 1013.2 0.0
26/02:30am 17.4 17.8 16.2 93 0.7 NW 9 11 5 6 1013.3 1013.3 0.0
26/02:00am 17.5 17.9 16.2 92 0.8 NW 9 11 5 6 1013.3 1013.3 0.0
26/01:30am 18.3 18.8 16.6 90 1.0 NW 9 13 5 7 1013.6 1013.6 0.0
26/01:00am 18.9 19.5 16.7 87 1.3 NW 9 13 5 7 1013.9 1013.9 0.0
26/12:30am 18.6 18.8 16.8 89 1.1 NNW 11 13 6 7 1014.1 1014.1 0.0
26/12:00am 18.8 19.0 16.8 88 1.2 NNW 11 13 6 7 1014.3 1014.3 0.0
 
Date/Time
EST
Temp
°C
App
Temp
°C
Dew
Point
°C
Rel
Hum
%
Delta-T
°C
Wind Press
QNH
hPa
Press
MSL
hPa
Rain since
9am
mm
Dir  Spd
km/h
Gust
km/h
Spd
kts
Gust
kts
25/11:30pm 18.3 18.5 16.8 91 0.9 NNW 11 17 6 9 1014.5 1014.5 0.0
25/11:00pm 18.5 19.2 17.0 91 0.9 NNW 9 13 5 7 1015.0 1015.0 0.0
25/10:30pm 18.7 20.0 17.0 90 1.0 NNW 6 7 3 4 1015.1 1015.1 0.0
25/10:00pm 19.4 20.2 17.3 88 1.3 NW 9 9 5 5 1015.5 1015.5 0.0
25/09:30pm 19.7 20.8 17.2 85 1.5 NW 7 9 4 5 1015.7 1015.7 0.0
25/09:00pm 20.5 20.9 18.1 86 1.5 NNW 13 17 7 9 1015.9 1015.9 0.0
25/08:30pm 19.7 20.0 17.9 89 1.1 N 13 17 7 9 1015.9 1015.9 0.0
25/08:00pm 19.7 20.3 17.6 88 1.3 NNE 11 11 6 6 1015.8 1015.8 0.0
25/07:30pm 19.9 20.4 17.4 85 1.5 NNE 11 13 6 7 1015.7 1015.7 0.0
25/07:00pm 20.4 20.4 17.3 82 1.9 NNE 13 17 7 9 1015.4 1015.4 0.0
25/06:30pm 20.9 20.3 17.5 81 2.1 N 17 22 9 12 1015.3 1015.3 0.0

Other Formats:

Comma delimited format used in spreadsheet applications
http://www.bom.gov.au/fwo/IDQ60801/IDQ60801.94578.axf

JavaScript Object Notation format (JSON) in row-major order
http://www.bom.gov.au/fwo/IDQ60801/IDQ60801.94578.json